sensor_id;sensor_type;location;lat;lon;timestamp;P1;durP1;ratioP1;P2;durP2;ratioP2
15944;SDS011;30172;48.832;8.732;2023-06-24T00:01:14;7.10;;;5.18;;
15944;SDS011;30172;48.832;8.732;2023-06-24T00:03:40;7.55;;;5.00;;
15944;SDS011;30172;48.832;8.732;2023-06-24T00:06:06;5.28;;;4.75;;
15944;SDS011;30172;48.832;8.732;2023-06-24T00:08:32;7.15;;;4.93;;
15944;SDS011;30172;48.832;8.732;2023-06-24T00:10:59;5.53;;;4.75;;
15944;SDS011;30172;48.832;8.732;2023-06-24T00:13:27;5.93;;;4.80;;
15944;SDS011;30172;48.832;8.732;2023-06-24T00:15:53;5.80;;;5.00;;
15944;SDS011;30172;48.832;8.732;2023-06-24T00:18:19;5.40;;;4.88;;
15944;SDS011;30172;48.832;8.732;2023-06-24T00:20:44;4.45;;;4.05;;
15944;SDS011;30172;48.832;8.732;2023-06-24T00:23:10;5.15;;;4.20;;
15944;SDS011;30172;48.832;8.732;2023-06-24T00:25:39;5.22;;;4.72;;
15944;SDS011;30172;48.832;8.732;2023-06-24T00:28:04;5.20;;;4.70;;
15944;SDS011;30172;48.832;8.732;2023-06-24T00:30:30;6.10;;;4.97;;
15944;SDS011;30172;48.832;8.732;2023-06-24T00:32:55;5.85;;;4.60;;
15944;SDS011;30172;48.832;8.732;2023-06-24T00:35:20;5.50;;;4.30;;
15944;SDS011;30172;48.832;8.732;2023-06-24T00:37:46;4.95;;;4.40;;
15944;SDS011;30172;48.832;8.732;2023-06-24T00:40:12;5.65;;;4.85;;
15944;SDS011;30172;48.832;8.732;2023-06-24T00:42:40;6.15;;;4.70;;
15944;SDS011;30172;48.832;8.732;2023-06-24T00:45:06;5.22;;;4.60;;
15944;SDS011;30172;48.832;8.732;2023-06-24T00:47:33;5.13;;;4.63;;
15944;SDS011;30172;48.832;8.732;2023-06-24T00:49:59;5.80;;;4.72;;
15944;SDS011;30172;48.832;8.732;2023-06-24T00:52:25;6.22;;;4.78;;
15944;SDS011;30172;48.832;8.732;2023-06-24T00:54:50;5.13;;;4.63;;
15944;SDS011;30172;48.832;8.732;2023-06-24T00:57:15;5.68;;;4.90;;
15944;SDS011;30172;48.832;8.732;2023-06-24T00:59:42;7.13;;;5.30;;
15944;SDS011;30172;48.832;8.732;2023-06-24T01:02:09;5.88;;;5.05;;
15944;SDS011;30172;48.832;8.732;2023-06-24T01:04:34;6.38;;;4.90;;
15944;SDS011;30172;48.832;8.732;2023-06-24T01:07:01;4.75;;;4.35;;
15944;SDS011;30172;48.832;8.732;2023-06-24T01:09:26;6.90;;;5.07;;
15944;SDS011;30172;48.832;8.732;2023-06-24T01:11:52;5.25;;;4.75;;
15944;SDS011;30172;48.832;8.732;2023-06-24T01:14:18;5.15;;;4.65;;
15944;SDS011;30172;48.832;8.732;2023-06-24T01:17:05;5.85;;;5.25;;
15944;SDS011;30172;48.832;8.732;2023-06-24T01:24:56;8.73;;;5.35;;
15944;SDS011;30172;48.832;8.732;2023-06-24T01:33:07;5.68;;;4.78;;
15944;SDS011;30172;48.832;8.732;2023-06-24T01:35:34;6.13;;;5.53;;
15944;SDS011;30172;48.832;8.732;2023-06-24T01:38:01;6.05;;;5.45;;
15944;SDS011;30172;48.832;8.732;2023-06-24T01:40:34;5.80;;;5.30;;
15944;SDS011;30172;48.832;8.732;2023-06-24T01:43:05;5.78;;;5.18;;
15944;SDS011;30172;48.832;8.732;2023-06-24T01:45:41;5.40;;;4.90;;
15944;SDS011;30172;48.832;8.732;2023-06-24T01:48:09;5.70;;;5.15;;
15944;SDS011;30172;48.832;8.732;2023-06-24T01:50:39;6.50;;;5.00;;
15944;SDS011;30172;48.832;8.732;2023-06-24T01:53:09;7.07;;;5.47;;
15944;SDS011;30172;48.832;8.732;2023-06-24T01:55:39;6.78;;;5.63;;
15944;SDS011;30172;48.832;8.732;2023-06-24T01:58:06;5.75;;;5.15;;
15944;SDS011;30172;48.832;8.732;2023-06-24T02:00:33;7.13;;;5.93;;
15944;SDS011;30172;48.832;8.732;2023-06-24T02:02:59;6.20;;;5.45;;
15944;SDS011;30172;48.832;8.732;2023-06-24T02:05:24;6.15;;;5.47;;
15944;SDS011;30172;48.832;8.732;2023-06-24T02:07:51;6.57;;;5.93;;
15944;SDS011;30172;48.832;8.732;2023-06-24T02:10:17;6.13;;;5.35;;
15944;SDS011;30172;48.832;8.732;2023-06-24T02:12:44;6.53;;;5.93;;
15944;SDS011;30172;48.832;8.732;2023-06-24T02:15:11;6.55;;;5.40;;
15944;SDS011;30172;48.832;8.732;2023-06-24T02:17:37;6.20;;;5.60;;
15944;SDS011;30172;48.832;8.732;2023-06-24T02:20:04;8.45;;;5.90;;
15944;SDS011;30172;48.832;8.732;2023-06-24T02:22:32;9.55;;;5.75;;
15944;SDS011;30172;48.832;8.732;2023-06-24T02:24:57;6.45;;;5.85;;
15944;SDS011;30172;48.832;8.732;2023-06-24T02:27:23;5.78;;;5.28;;
15944;SDS011;30172;48.832;8.732;2023-06-24T02:29:48;5.63;;;5.13;;
15944;SDS011;30172;48.832;8.732;2023-06-24T02:32:14;6.22;;;5.63;;
15944;SDS011;30172;48.832;8.732;2023-06-24T02:34:40;5.88;;;5.38;;
15944;SDS011;30172;48.832;8.732;2023-06-24T02:37:05;6.32;;;5.72;;
15944;SDS011;30172;48.832;8.732;2023-06-24T02:39:30;8.15;;;5.90;;
15944;SDS011;30172;48.832;8.732;2023-06-24T02:41:56;6.53;;;5.32;;
15944;SDS011;30172;48.832;8.732;2023-06-24T02:44:21;6.22;;;5.57;;
15944;SDS011;30172;48.832;8.732;2023-06-24T02:46:46;7.70;;;6.45;;
15944;SDS011;30172;48.832;8.732;2023-06-24T02:49:13;5.72;;;5.22;;
15944;SDS011;30172;48.832;8.732;2023-06-24T02:51:40;6.45;;;5.82;;
15944;SDS011;30172;48.832;8.732;2023-06-24T02:54:06;8.00;;;5.57;;
15944;SDS011;30172;48.832;8.732;2023-06-24T02:56:32;6.82;;;5.55;;
15944;SDS011;30172;48.832;8.732;2023-06-24T02:58:57;6.05;;;5.53;;
15944;SDS011;30172;48.832;8.732;2023-06-24T03:01:23;6.22;;;5.30;;
15944;SDS011;30172;48.832;8.732;2023-06-24T03:03:51;5.72;;;5.20;;
15944;SDS011;30172;48.832;8.732;2023-06-24T03:06:18;6.68;;;6.05;;
15944;SDS011;30172;48.832;8.732;2023-06-24T03:08:44;7.63;;;5.70;;
15944;SDS011;30172;48.832;8.732;2023-06-24T03:11:12;7.15;;;6.45;;
15944;SDS011;30172;48.832;8.732;2023-06-24T03:13:38;7.05;;;5.53;;
15944;SDS011;30172;48.832;8.732;2023-06-24T03:16:03;6.57;;;5.97;;
15944;SDS011;30172;48.832;8.732;2023-06-24T03:18:29;8.10;;;6.32;;
15944;SDS011;30172;48.832;8.732;2023-06-24T03:20:54;7.93;;;6.15;;
15944;SDS011;30172;48.832;8.732;2023-06-24T03:23:19;6.53;;;5.88;;
15944;SDS011;30172;48.832;8.732;2023-06-24T03:25:45;5.78;;;5.28;;
15944;SDS011;30172;48.832;8.732;2023-06-24T03:28:10;6.18;;;5.57;;
15944;SDS011;30172;48.832;8.732;2023-06-24T03:30:35;7.18;;;5.55;;
15944;SDS011;30172;48.832;8.732;2023-06-24T03:33:01;7.85;;;5.88;;
15944;SDS011;30172;48.832;8.732;2023-06-24T03:35:27;5.90;;;5.30;;
15944;SDS011;30172;48.832;8.732;2023-06-24T03:37:52;6.43;;;5.35;;
15944;SDS011;30172;48.832;8.732;2023-06-24T03:40:17;5.93;;;5.32;;
15944;SDS011;30172;48.832;8.732;2023-06-24T03:42:43;6.90;;;5.25;;
15944;SDS011;30172;48.832;8.732;2023-06-24T03:45:08;6.68;;;5.18;;
15944;SDS011;30172;48.832;8.732;2023-06-24T03:47:34;6.10;;;5.43;;
15944;SDS011;30172;48.832;8.732;2023-06-24T03:49:59;5.95;;;5.35;;
15944;SDS011;30172;48.832;8.732;2023-06-24T03:52:25;6.85;;;5.45;;
15944;SDS011;30172;48.832;8.732;2023-06-24T03:54:50;5.85;;;5.30;;
15944;SDS011;30172;48.832;8.732;2023-06-24T03:57:15;6.93;;;4.80;;
15944;SDS011;30172;48.832;8.732;2023-06-24T03:59:41;5.28;;;4.60;;
15944;SDS011;30172;48.832;8.732;2023-06-24T04:02:06;6.30;;;4.90;;
15944;SDS011;30172;48.832;8.732;2023-06-24T04:04:35;6.55;;;5.40;;
15944;SDS011;30172;48.832;8.732;2023-06-24T04:07:00;5.15;;;4.60;;
15944;SDS011;30172;48.832;8.732;2023-06-24T04:09:26;5.70;;;4.85;;
15944;SDS011;30172;48.832;8.732;2023-06-24T04:11:51;4.90;;;4.50;;
15944;SDS011;30172;48.832;8.732;2023-06-24T04:14:16;5.55;;;4.60;;
15944;SDS011;30172;48.832;8.732;2023-06-24T04:16:42;5.47;;;4.55;;
15944;SDS011;30172;48.832;8.732;2023-06-24T04:19:07;5.80;;;4.63;;
15944;SDS011;30172;48.832;8.732;2023-06-24T04:21:32;4.90;;;4.45;;
15944;SDS011;30172;48.832;8.732;2023-06-24T04:23:58;4.63;;;4.22;;
15944;SDS011;30172;48.832;8.732;2023-06-24T04:26:23;5.03;;;4.53;;
15944;SDS011;30172;48.832;8.732;2023-06-24T04:28:48;5.60;;;4.75;;
15944;SDS011;30172;48.832;8.732;2023-06-24T04:31:14;4.60;;;4.20;;
15944;SDS011;30172;48.832;8.732;2023-06-24T04:33:39;5.35;;;4.63;;
15944;SDS011;30172;48.832;8.732;2023-06-24T04:36:04;5.10;;;4.70;;
15944;SDS011;30172;48.832;8.732;2023-06-24T04:38:30;4.60;;;4.20;;
15944;SDS011;30172;48.832;8.732;2023-06-24T04:40:55;4.72;;;4.28;;
15944;SDS011;30172;48.832;8.732;2023-06-24T04:43:22;4.78;;;4.32;;
15944;SDS011;30172;48.832;8.732;2023-06-24T04:45:47;5.00;;;4.13;;
15944;SDS011;30172;48.832;8.732;2023-06-24T04:48:12;6.78;;;4.40;;
15944;SDS011;30172;48.832;8.732;2023-06-24T04:50:38;5.40;;;4.90;;
15944;SDS011;30172;48.832;8.732;2023-06-24T04:53:03;5.00;;;4.50;;
15944;SDS011;30172;48.832;8.732;2023-06-24T04:55:29;5.10;;;4.70;;
15944;SDS011;30172;48.832;8.732;2023-06-24T04:57:55;4.78;;;4.38;;
15944;SDS011;30172;48.832;8.732;2023-06-24T05:00:20;4.60;;;4.18;;
15944;SDS011;30172;48.832;8.732;2023-06-24T05:02:48;4.57;;;4.18;;
15944;SDS011;30172;48.832;8.732;2023-06-24T05:05:13;6.68;;;4.47;;
15944;SDS011;30172;48.832;8.732;2023-06-24T05:07:38;4.53;;;4.13;;
15944;SDS011;30172;48.832;8.732;2023-06-24T05:10:04;4.80;;;4.40;;
15944;SDS011;30172;48.832;8.732;2023-06-24T05:12:30;6.13;;;4.38;;
15944;SDS011;30172;48.832;8.732;2023-06-24T05:14:55;4.20;;;3.80;;
15944;SDS011;30172;48.832;8.732;2023-06-24T05:17:21;4.63;;;3.78;;
15944;SDS011;30172;48.832;8.732;2023-06-24T05:19:46;4.65;;;4.07;;
15944;SDS011;30172;48.832;8.732;2023-06-24T05:22:11;5.18;;;4.43;;
15944;SDS011;30172;48.832;8.732;2023-06-24T05:24:37;4.95;;;4.30;;
15944;SDS011;30172;48.832;8.732;2023-06-24T05:27:06;4.25;;;3.95;;
15944;SDS011;30172;48.832;8.732;2023-06-24T05:29:32;5.50;;;4.60;;
15944;SDS011;30172;48.832;8.732;2023-06-24T05:31:59;5.22;;;4.15;;
15944;SDS011;30172;48.832;8.732;2023-06-24T05:34:27;4.47;;;4.07;;
15944;SDS011;30172;48.832;8.732;2023-06-24T05:36:52;6.07;;;4.03;;
15944;SDS011;30172;48.832;8.732;2023-06-24T05:39:18;4.60;;;4.20;;
15944;SDS011;30172;48.832;8.732;2023-06-24T05:41:45;5.05;;;4.47;;
15944;SDS011;30172;48.832;8.732;2023-06-24T05:44:10;4.32;;;3.92;;
15944;SDS011;30172;48.832;8.732;2023-06-24T05:46:35;5.30;;;4.80;;
15944;SDS011;30172;48.832;8.732;2023-06-24T05:49:01;4.20;;;3.88;;
15944;SDS011;30172;48.832;8.732;2023-06-24T05:51:26;4.88;;;4.47;;
15944;SDS011;30172;48.832;8.732;2023-06-24T05:53:52;4.95;;;3.97;;
15944;SDS011;30172;48.832;8.732;2023-06-24T05:56:17;4.93;;;4.53;;
15944;SDS011;30172;48.832;8.732;2023-06-24T05:58:43;4.95;;;4.55;;
15944;SDS011;30172;48.832;8.732;2023-06-24T06:01:11;5.00;;;4.60;;
15944;SDS011;30172;48.832;8.732;2023-06-24T06:03:37;4.00;;;3.70;;
15944;SDS011;30172;48.832;8.732;2023-06-24T06:06:02;5.07;;;4.43;;
15944;SDS011;30172;48.832;8.732;2023-06-24T06:08:28;5.35;;;4.65;;
15944;SDS011;30172;48.832;8.732;2023-06-24T06:10:53;5.00;;;4.50;;
15944;SDS011;30172;48.832;8.732;2023-06-24T06:13:18;5.22;;;4.30;;
15944;SDS011;30172;48.832;8.732;2023-06-24T06:15:44;4.95;;;4.55;;
15944;SDS011;30172;48.832;8.732;2023-06-24T06:18:09;4.60;;;4.20;;
15944;SDS011;30172;48.832;8.732;2023-06-24T06:20:34;4.65;;;4.25;;
15944;SDS011;30172;48.832;8.732;2023-06-24T06:23:00;4.40;;;3.97;;
15944;SDS011;30172;48.832;8.732;2023-06-24T06:25:25;6.35;;;4.45;;
15944;SDS011;30172;48.832;8.732;2023-06-24T06:27:50;7.28;;;4.65;;
15944;SDS011;30172;48.832;8.732;2023-06-24T06:30:16;5.68;;;5.05;;
15944;SDS011;30172;48.832;8.732;2023-06-24T06:32:41;5.65;;;5.07;;
15944;SDS011;30172;48.832;8.732;2023-06-24T06:35:07;4.32;;;4.03;;
15944;SDS011;30172;48.832;8.732;2023-06-24T06:37:33;5.00;;;4.50;;
15944;SDS011;30172;48.832;8.732;2023-06-24T06:39:58;5.60;;;4.60;;
15944;SDS011;30172;48.832;8.732;2023-06-24T06:42:24;4.90;;;4.50;;
15944;SDS011;30172;48.832;8.732;2023-06-24T06:44:49;5.20;;;4.70;;
15944;SDS011;30172;48.832;8.732;2023-06-24T06:47:14;5.45;;;4.10;;
15944;SDS011;30172;48.832;8.732;2023-06-24T06:49:40;7.05;;;4.80;;
15944;SDS011;30172;48.832;8.732;2023-06-24T06:52:06;4.70;;;4.30;;
15944;SDS011;30172;48.832;8.732;2023-06-24T06:54:32;5.45;;;4.88;;
15944;SDS011;30172;48.832;8.732;2023-06-24T06:57:03;6.07;;;4.68;;
15944;SDS011;30172;48.832;8.732;2023-06-24T06:59:30;5.25;;;4.75;;
15944;SDS011;30172;48.832;8.732;2023-06-24T07:01:56;5.80;;;5.05;;
15944;SDS011;30172;48.832;8.732;2023-06-24T07:04:21;5.65;;;5.18;;
15944;SDS011;30172;48.832;8.732;2023-06-24T07:06:46;5.45;;;4.80;;
15944;SDS011;30172;48.832;8.732;2023-06-24T07:09:12;5.10;;;4.63;;
15944;SDS011;30172;48.832;8.732;2023-06-24T07:11:37;6.72;;;5.22;;
15944;SDS011;30172;48.832;8.732;2023-06-24T07:14:02;5.35;;;4.95;;
15944;SDS011;30172;48.832;8.732;2023-06-24T07:16:28;5.28;;;4.78;;
15944;SDS011;30172;48.832;8.732;2023-06-24T07:18:53;5.35;;;4.85;;
15944;SDS011;30172;48.832;8.732;2023-06-24T07:21:18;5.30;;;4.85;;
15944;SDS011;30172;48.832;8.732;2023-06-24T07:23:44;6.35;;;4.65;;
15944;SDS011;30172;48.832;8.732;2023-06-24T07:26:09;5.20;;;4.70;;
15944;SDS011;30172;48.832;8.732;2023-06-24T07:28:34;4.97;;;4.53;;
15944;SDS011;30172;48.832;8.732;2023-06-24T07:31:00;4.85;;;4.45;;
15944;SDS011;30172;48.832;8.732;2023-06-24T07:33:25;5.15;;;4.32;;
15944;SDS011;30172;48.832;8.732;2023-06-24T07:35:51;4.63;;;4.22;;
15944;SDS011;30172;48.832;8.732;2023-06-24T07:38:16;5.28;;;4.60;;
15944;SDS011;30172;48.832;8.732;2023-06-24T07:40:42;5.82;;;4.72;;
15944;SDS011;30172;48.832;8.732;2023-06-24T07:43:07;4.57;;;4.18;;
15944;SDS011;30172;48.832;8.732;2023-06-24T07:45:32;5.75;;;4.72;;
15944;SDS011;30172;48.832;8.732;2023-06-24T07:47:58;4.50;;;4.10;;
15944;SDS011;30172;48.832;8.732;2023-06-24T07:50:23;4.82;;;4.30;;
15944;SDS011;30172;48.832;8.732;2023-06-24T07:52:49;4.88;;;4.47;;
15944;SDS011;30172;48.832;8.732;2023-06-24T07:55:14;4.80;;;4.22;;
15944;SDS011;30172;48.832;8.732;2023-06-24T07:57:39;5.47;;;3.90;;
15944;SDS011;30172;48.832;8.732;2023-06-24T08:00:08;4.63;;;4.15;;
15944;SDS011;30172;48.832;8.732;2023-06-24T08:02:34;5.20;;;4.68;;
15944;SDS011;30172;48.832;8.732;2023-06-24T08:05:00;4.28;;;3.88;;
15944;SDS011;30172;48.832;8.732;2023-06-24T08:07:25;4.22;;;3.83;;
15944;SDS011;30172;48.832;8.732;2023-06-24T08:09:50;4.82;;;3.70;;
15944;SDS011;30172;48.832;8.732;2023-06-24T08:12:16;4.13;;;3.80;;
15944;SDS011;30172;48.832;8.732;2023-06-24T08:14:41;3.50;;;3.20;;
15944;SDS011;30172;48.832;8.732;2023-06-24T08:17:06;4.15;;;3.65;;
15944;SDS011;30172;48.832;8.732;2023-06-24T08:19:32;3.90;;;3.60;;
15944;SDS011;30172;48.832;8.732;2023-06-24T08:21:57;4.03;;;3.53;;
15944;SDS011;30172;48.832;8.732;2023-06-24T08:24:22;3.60;;;3.30;;
15944;SDS011;30172;48.832;8.732;2023-06-24T08:26:48;4.75;;;3.13;;
15944;SDS011;30172;48.832;8.732;2023-06-24T08:29:13;4.20;;;3.22;;
15944;SDS011;30172;48.832;8.732;2023-06-24T08:31:38;4.25;;;3.85;;
15944;SDS011;30172;48.832;8.732;2023-06-24T08:34:04;4.15;;;3.80;;
15944;SDS011;30172;48.832;8.732;2023-06-24T08:36:31;4.30;;;3.67;;
15944;SDS011;30172;48.832;8.732;2023-06-24T08:38:56;4.13;;;3.33;;
15944;SDS011;30172;48.832;8.732;2023-06-24T08:41:22;4.68;;;4.05;;
15944;SDS011;30172;48.832;8.732;2023-06-24T08:43:47;4.03;;;3.72;;
15944;SDS011;30172;48.832;8.732;2023-06-24T08:46:13;5.10;;;4.13;;
15944;SDS011;30172;48.832;8.732;2023-06-24T08:48:40;4.30;;;3.88;;
15944;SDS011;30172;48.832;8.732;2023-06-24T08:51:08;3.60;;;3.30;;
15944;SDS011;30172;48.832;8.732;2023-06-24T08:53:34;3.92;;;3.63;;
15944;SDS011;30172;48.832;8.732;2023-06-24T08:55:59;5.50;;;3.40;;
15944;SDS011;30172;48.832;8.732;2023-06-24T08:58:25;4.20;;;3.80;;
15944;SDS011;30172;48.832;8.732;2023-06-24T09:00:50;3.70;;;3.40;;
15944;SDS011;30172;48.832;8.732;2023-06-24T09:03:16;4.15;;;3.17;;
15944;SDS011;30172;48.832;8.732;2023-06-24T09:05:41;4.30;;;3.90;;
15944;SDS011;30172;48.832;8.732;2023-06-24T09:08:06;4.15;;;3.33;;
15944;SDS011;30172;48.832;8.732;2023-06-24T09:10:32;5.15;;;3.58;;
15944;SDS011;30172;48.832;8.732;2023-06-24T09:12:59;4.60;;;3.67;;
15944;SDS011;30172;48.832;8.732;2023-06-24T09:15:29;3.60;;;3.30;;
15944;SDS011;30172;48.832;8.732;2023-06-24T09:17:55;4.85;;;3.70;;
15944;SDS011;30172;48.832;8.732;2023-06-24T09:20:21;3.25;;;2.95;;
15944;SDS011;30172;48.832;8.732;2023-06-24T09:22:47;4.43;;;4.03;;
15944;SDS011;30172;48.832;8.732;2023-06-24T09:25:17;4.85;;;3.92;;
15944;SDS011;30172;48.832;8.732;2023-06-24T09:27:47;4.10;;;3.70;;
15944;SDS011;30172;48.832;8.732;2023-06-24T09:30:17;5.03;;;3.97;;
15944;SDS011;30172;48.832;8.732;2023-06-24T09:32:47;5.15;;;3.72;;
15944;SDS011;30172;48.832;8.732;2023-06-24T09:35:13;5.00;;;4.18;;
15944;SDS011;30172;48.832;8.732;2023-06-24T09:37:39;4.70;;;3.40;;
15944;SDS011;30172;48.832;8.732;2023-06-24T09:40:04;4.97;;;4.07;;
15944;SDS011;30172;48.832;8.732;2023-06-24T09:42:31;4.25;;;3.85;;
15944;SDS011;30172;48.832;8.732;2023-06-24T09:44:57;4.28;;;3.85;;
15944;SDS011;30172;48.832;8.732;2023-06-24T09:47:22;4.03;;;3.63;;
15944;SDS011;30172;48.832;8.732;2023-06-24T09:49:52;4.13;;;3.72;;
15944;SDS011;30172;48.832;8.732;2023-06-24T09:52:18;4.25;;;3.65;;
15944;SDS011;30172;48.832;8.732;2023-06-24T09:54:44;3.65;;;3.35;;
15944;SDS011;30172;48.832;8.732;2023-06-24T09:57:11;3.75;;;3.33;;
15944;SDS011;30172;48.832;8.732;2023-06-24T09:59:38;3.42;;;3.15;;
15944;SDS011;30172;48.832;8.732;2023-06-24T10:02:04;5.05;;;3.70;;
15944;SDS011;30172;48.832;8.732;2023-06-24T10:04:33;4.15;;;3.78;;
15944;SDS011;30172;48.832;8.732;2023-06-24T10:06:58;4.03;;;3.40;;
15944;SDS011;30172;48.832;8.732;2023-06-24T10:09:24;3.83;;;3.53;;
15944;SDS011;30172;48.832;8.732;2023-06-24T10:11:49;3.60;;;3.30;;
15944;SDS011;30172;48.832;8.732;2023-06-24T10:14:14;3.35;;;3.05;;
15944;SDS011;30172;48.832;8.732;2023-06-24T10:16:41;3.80;;;3.00;;
15944;SDS011;30172;48.832;8.732;2023-06-24T10:19:07;3.85;;;3.00;;
15944;SDS011;30172;48.832;8.732;2023-06-24T10:21:50;4.07;;;3.17;;
15944;SDS011;30172;48.832;8.732;2023-06-24T10:24:27;3.47;;;3.17;;
15944;SDS011;30172;48.832;8.732;2023-06-24T10:26:53;4.32;;;3.50;;
15944;SDS011;30172;48.832;8.732;2023-06-24T10:29:20;4.05;;;3.70;;
15944;SDS011;30172;48.832;8.732;2023-06-24T10:31:55;3.90;;;3.60;;
15944;SDS011;30172;48.832;8.732;2023-06-24T10:34:28;4.00;;;3.25;;
15944;SDS011;30172;48.832;8.732;2023-06-24T10:36:56;3.60;;;3.30;;
15944;SDS011;30172;48.832;8.732;2023-06-24T10:39:40;3.65;;;3.35;;
15944;SDS011;30172;48.832;8.732;2023-06-24T10:47:37;3.65;;;3.35;;
15944;SDS011;30172;48.832;8.732;2023-06-24T10:50:04;3.47;;;3.17;;
15944;SDS011;30172;48.832;8.732;2023-06-24T10:52:30;3.40;;;3.10;;
15944;SDS011;30172;48.832;8.732;2023-06-24T10:54:56;3.80;;;3.28;;
15944;SDS011;30172;48.832;8.732;2023-06-24T10:57:23;4.10;;;3.22;;
15944;SDS011;30172;48.832;8.732;2023-06-24T10:59:50;4.30;;;3.25;;
15944;SDS011;30172;48.832;8.732;2023-06-24T11:02:17;6.05;;;3.38;;
15944;SDS011;30172;48.832;8.732;2023-06-24T11:04:47;3.55;;;3.25;;
15944;SDS011;30172;48.832;8.732;2023-06-24T11:07:14;4.57;;;3.50;;
15944;SDS011;30172;48.832;8.732;2023-06-24T11:09:40;3.60;;;3.30;;
15944;SDS011;30172;48.832;8.732;2023-06-24T11:12:06;3.67;;;2.92;;
15944;SDS011;30172;48.832;8.732;2023-06-24T11:14:33;3.78;;;3.10;;
15944;SDS011;30172;48.832;8.732;2023-06-24T11:17:02;3.35;;;2.60;;
15944;SDS011;30172;48.832;8.732;2023-06-24T11:19:29;3.55;;;2.80;;
15944;SDS011;30172;48.832;8.732;2023-06-24T11:21:58;3.05;;;2.75;;
15944;SDS011;30172;48.832;8.732;2023-06-24T11:24:24;3.50;;;2.65;;
15944;SDS011;30172;48.832;8.732;2023-06-24T11:26:50;3.38;;;3.08;;
15944;SDS011;30172;48.832;8.732;2023-06-24T11:29:16;3.47;;;3.20;;
15944;SDS011;30172;48.832;8.732;2023-06-24T11:31:41;3.35;;;3.05;;
15944;SDS011;30172;48.832;8.732;2023-06-24T11:34:06;5.57;;;3.00;;
15944;SDS011;30172;48.832;8.732;2023-06-24T11:36:34;3.92;;;3.50;;
15944;SDS011;30172;48.832;8.732;2023-06-24T11:39:00;3.80;;;3.45;;
15944;SDS011;30172;48.832;8.732;2023-06-24T11:41:25;4.10;;;2.95;;
15944;SDS011;30172;48.832;8.732;2023-06-24T11:43:52;3.50;;;3.20;;
15944;SDS011;30172;48.832;8.732;2023-06-24T11:46:23;3.45;;;3.15;;
15944;SDS011;30172;48.832;8.732;2023-06-24T11:48:51;3.75;;;3.28;;
15944;SDS011;30172;48.832;8.732;2023-06-24T11:51:16;3.33;;;2.97;;
15944;SDS011;30172;48.832;8.732;2023-06-24T11:53:42;6.32;;;3.20;;
15944;SDS011;30172;48.832;8.732;2023-06-24T11:56:08;3.30;;;2.97;;
15944;SDS011;30172;48.832;8.732;2023-06-24T11:58:34;5.03;;;3.03;;
15944;SDS011;30172;48.832;8.732;2023-06-24T12:01:03;3.50;;;3.20;;
15944;SDS011;30172;48.832;8.732;2023-06-24T12:03:29;5.50;;;3.40;;
15944;SDS011;30172;48.832;8.732;2023-06-24T12:05:54;3.33;;;2.95;;
15944;SDS011;30172;48.832;8.732;2023-06-24T12:08:20;3.67;;;3.38;;
15944;SDS011;30172;48.832;8.732;2023-06-24T12:10:47;4.22;;;3.25;;
15944;SDS011;30172;48.832;8.732;2023-06-24T12:13:13;4.75;;;3.67;;
15944;SDS011;30172;48.832;8.732;2023-06-24T12:15:38;6.18;;;3.75;;
15944;SDS011;30172;48.832;8.732;2023-06-24T12:18:03;3.67;;;2.75;;
15944;SDS011;30172;48.832;8.732;2023-06-24T12:20:30;3.55;;;2.70;;
15944;SDS011;30172;48.832;8.732;2023-06-24T12:22:56;3.53;;;3.05;;
15944;SDS011;30172;48.832;8.732;2023-06-24T12:25:22;4.60;;;3.10;;
15944;SDS011;30172;48.832;8.732;2023-06-24T12:27:47;3.78;;;3.35;;
15944;SDS011;30172;48.832;8.732;2023-06-24T12:30:13;3.55;;;3.25;;
15944;SDS011;30172;48.832;8.732;2023-06-24T12:32:39;2.88;;;2.67;;
15944;SDS011;30172;48.832;8.732;2023-06-24T12:35:05;3.40;;;3.10;;
15944;SDS011;30172;48.832;8.732;2023-06-24T12:37:31;3.97;;;3.35;;
15944;SDS011;30172;48.832;8.732;2023-06-24T12:39:57;5.35;;;2.97;;
15944;SDS011;30172;48.832;8.732;2023-06-24T12:42:23;3.28;;;2.83;;
15944;SDS011;30172;48.832;8.732;2023-06-24T12:44:48;3.55;;;3.25;;
15944;SDS011;30172;48.832;8.732;2023-06-24T12:47:13;3.38;;;3.08;;
15944;SDS011;30172;48.832;8.732;2023-06-24T12:49:39;4.13;;;3.50;;
15944;SDS011;30172;48.832;8.732;2023-06-24T12:52:04;4.43;;;3.00;;
15944;SDS011;30172;48.832;8.732;2023-06-24T12:54:29;3.30;;;3.00;;
15944;SDS011;30172;48.832;8.732;2023-06-24T12:56:55;3.70;;;2.80;;
15944;SDS011;30172;48.832;8.732;2023-06-24T12:59:22;3.40;;;3.10;;
15944;SDS011;30172;48.832;8.732;2023-06-24T13:01:47;3.00;;;2.70;;
15944;SDS011;30172;48.832;8.732;2023-06-24T13:04:12;2.95;;;2.70;;
15944;SDS011;30172;48.832;8.732;2023-06-24T13:06:38;3.30;;;3.00;;
15944;SDS011;30172;48.832;8.732;2023-06-24T13:09:03;3.15;;;2.60;;
15944;SDS011;30172;48.832;8.732;2023-06-24T13:11:28;4.00;;;2.88;;
15944;SDS011;30172;48.832;8.732;2023-06-24T13:13:54;3.45;;;3.08;;
15944;SDS011;30172;48.832;8.732;2023-06-24T13:16:19;3.20;;;2.90;;
15944;SDS011;30172;48.832;8.732;2023-06-24T13:18:45;3.50;;;3.20;;
15944;SDS011;30172;48.832;8.732;2023-06-24T13:21:10;3.95;;;3.05;;
15944;SDS011;30172;48.832;8.732;2023-06-24T13:23:35;3.45;;;3.15;;
15944;SDS011;30172;48.832;8.732;2023-06-24T13:26:03;2.80;;;2.60;;
15944;SDS011;30172;48.832;8.732;2023-06-24T13:28:29;2.60;;;2.40;;
15944;SDS011;30172;48.832;8.732;2023-06-24T13:30:54;3.15;;;2.85;;
15944;SDS011;30172;48.832;8.732;2023-06-24T13:33:20;3.15;;;2.88;;
15944;SDS011;30172;48.832;8.732;2023-06-24T13:35:45;3.17;;;2.88;;
15944;SDS011;30172;48.832;8.732;2023-06-24T13:38:11;3.70;;;3.40;;
15944;SDS011;30172;48.832;8.732;2023-06-24T13:40:37;3.10;;;2.80;;
15944;SDS011;30172;48.832;8.732;2023-06-24T13:43:02;3.95;;;3.20;;
15944;SDS011;30172;48.832;8.732;2023-06-24T13:45:28;3.05;;;2.85;;
15944;SDS011;30172;48.832;8.732;2023-06-24T13:47:53;3.30;;;3.00;;
15944;SDS011;30172;48.832;8.732;2023-06-24T13:50:20;4.15;;;3.05;;
15944;SDS011;30172;48.832;8.732;2023-06-24T13:52:45;3.10;;;2.80;;
15944;SDS011;30172;48.832;8.732;2023-06-24T13:55:10;2.90;;;2.70;;
15944;SDS011;30172;48.832;8.732;2023-06-24T13:57:36;3.30;;;2.97;;
15944;SDS011;30172;48.832;8.732;2023-06-24T14:00:01;3.72;;;2.72;;
15944;SDS011;30172;48.832;8.732;2023-06-24T14:02:27;3.70;;;2.85;;
15944;SDS011;30172;48.832;8.732;2023-06-24T14:04:52;4.15;;;2.97;;
15944;SDS011;30172;48.832;8.732;2023-06-24T14:07:17;3.35;;;2.95;;
15944;SDS011;30172;48.832;8.732;2023-06-24T14:09:43;4.00;;;3.35;;
15944;SDS011;30172;48.832;8.732;2023-06-24T14:12:08;2.97;;;2.67;;
15944;SDS011;30172;48.832;8.732;2023-06-24T14:14:34;3.08;;;2.85;;
15944;SDS011;30172;48.832;8.732;2023-06-24T14:17:01;3.45;;;3.15;;
15944;SDS011;30172;48.832;8.732;2023-06-24T14:19:27;3.58;;;3.28;;
15944;SDS011;30172;48.832;8.732;2023-06-24T14:21:53;3.92;;;3.10;;
15944;SDS011;30172;48.832;8.732;2023-06-24T14:24:18;4.82;;;3.42;;
15944;SDS011;30172;48.832;8.732;2023-06-24T14:26:43;3.63;;;3.10;;
15944;SDS011;30172;48.832;8.732;2023-06-24T14:29:09;3.55;;;3.25;;
15944;SDS011;30172;48.832;8.732;2023-06-24T14:31:34;3.35;;;3.05;;
15944;SDS011;30172;48.832;8.732;2023-06-24T14:34:00;5.35;;;3.22;;
15944;SDS011;30172;48.832;8.732;2023-06-24T14:36:25;3.45;;;3.15;;
15944;SDS011;30172;48.832;8.732;2023-06-24T14:38:50;3.30;;;3.00;;
15944;SDS011;30172;48.832;8.732;2023-06-24T14:41:16;3.17;;;2.88;;
15944;SDS011;30172;48.832;8.732;2023-06-24T14:43:41;3.75;;;3.25;;
15944;SDS011;30172;48.832;8.732;2023-06-24T14:46:06;3.53;;;2.90;;
15944;SDS011;30172;48.832;8.732;2023-06-24T14:48:32;3.75;;;3.33;;
15944;SDS011;30172;48.832;8.732;2023-06-24T14:50:57;3.97;;;3.35;;
15944;SDS011;30172;48.832;8.732;2023-06-24T14:53:22;3.80;;;3.38;;
15944;SDS011;30172;48.832;8.732;2023-06-24T14:55:48;4.10;;;3.50;;
15944;SDS011;30172;48.832;8.732;2023-06-24T14:58:13;3.67;;;3.38;;